Time;durP1;ratioP1;P1;durP2;ratioP2;P2;SDS_P1;SDS_P2;PMS_P1;PMS_P2;Temp;Humidity;BMP_temperature;BMP_pressure;BME280_temperature;BME280_humidity;BME280_pressure;Samples;Min_cycle;Max_cycle;Signal;HPM_P1;HPM_P2
2022/05/27 00:01:21;;;;;;;4.47;2.13;;;13.90;99.90;;;;;;5119982;27;20031;-63
2022/05/27 00:03:47;;;;;;;5.72;2.10;;;13.90;99.90;;;;;;5120062;27;20125;-63
2022/05/27 00:06:14;;;;;;;5.75;2.35;;;14.10;99.90;;;;;;5138316;27;20042;-63
2022/05/27 00:08:39;;;;;;;2.63;1.60;;;14.00;99.90;;;;;;5142050;27;20114;-63
2022/05/27 00:11:05;;;;;;;4.68;1.90;;;14.00;99.90;;;;;;5118724;27;20437;-63
2022/05/27 00:13:31;;;;;;;6.22;2.22;;;14.00;99.90;;;;;;5122250;27;20039;-63
2022/05/27 00:15:57;;;;;;;5.88;2.08;;;14.00;99.90;;;;;;5120768;27;20132;-63
2022/05/27 00:18:24;;;;;;;5.85;2.00;;;14.00;99.90;;;;;;5143828;27;20131;-63
2022/05/27 00:20:49;;;;;;;5.47;2.42;;;14.10;99.90;;;;;;5122488;27;20042;-63
2022/05/27 00:23:16;;;;;;;6.35;2.45;;;14.00;99.90;;;;;;5105945;27;20043;-64
2022/05/27 00:25:42;;;;;;;6.15;2.17;;;14.10;99.90;;;;;;5146176;27;20114;-63
2022/05/27 00:28:08;;;;;;;6.80;2.58;;;14.10;99.90;;;;;;5123359;27;20154;-63
2022/05/27 00:30:35;;;;;;;6.00;2.53;;;14.10;99.90;;;;;;5137512;27;20035;-64
2022/05/27 00:33:01;;;;;;;11.65;2.40;;;14.10;99.90;;;;;;5123195;27;20035;-63
2022/05/27 00:35:27;;;;;;;6.88;2.40;;;14.10;99.90;;;;;;5122467;27;20364;-63
2022/05/27 00:37:53;;;;;;;8.15;2.72;;;14.10;99.90;;;;;;5116055;27;20047;-63
2022/05/27 00:40:20;;;;;;;5.88;2.80;;;14.10;99.90;;;;;;5143472;27;20039;-63
2022/05/27 00:42:47;;;;;;;6.38;2.88;;;14.10;99.90;;;;;;5144526;27;20103;-63
2022/05/27 00:45:21;;;;;;;7.00;2.90;;;14.10;99.90;;;;;;5123008;27;20031;-62
2022/05/27 00:47:53;;;;;;;9.00;2.63;;;14.10;99.90;;;;;;5143407;27;20352;-62
2022/05/27 00:50:23;;;;;;;8.60;2.90;;;14.10;99.90;;;;;;5139707;27;20356;-62
2022/05/27 00:52:49;;;;;;;11.50;3.30;;;14.10;99.90;;;;;;5121476;27;20176;-63
2022/05/27 00:55:25;;;;;;;10.90;3.35;;;14.10;99.90;;;;;;5121869;27;20508;-63
2022/05/27 00:57:57;;;;;;;11.27;3.15;;;14.10;99.90;;;;;;5121307;27;20172;-63
2022/05/27 01:00:24;;;;;;;9.02;3.03;;;14.10;99.90;;;;;;5119737;27;20103;-63
2022/05/27 01:02:51;;;;;;;10.55;3.60;;;14.10;99.90;;;;;;5143276;27;20042;-63
2022/05/27 01:05:21;;;;;;;12.35;3.35;;;14.10;99.90;;;;;;5122592;27;20043;-62
2022/05/27 01:07:47;;;;;;;9.45;3.10;;;14.00;99.90;;;;;;5143575;27;20050;-63
2022/05/27 01:10:18;;;;;;;9.38;3.42;;;14.10;99.90;;;;;;5121563;27;20058;-62
2022/05/27 01:13:09;;;;;;;13.38;3.80;;;14.10;99.90;;;;;;5120563;27;20038;-62
2022/05/27 01:16:01;;;;;;;10.93;3.53;;;14.10;99.90;;;;;;5117132;27;20416;-63
2022/05/27 01:21:53;;;;;;;10.48;3.65;;;14.10;99.90;;;;;;5141081;27;20471;-62
2022/05/27 01:24:39;;;;;;;12.43;3.50;;;14.20;99.90;;;;;;5118322;27;20039;-63
2022/05/27 01:27:41;;;;;;;11.32;3.92;;;14.20;99.90;;;;;;5119971;27;20068;-63
2022/05/27 01:30:26;;;;;;;11.75;3.75;;;14.10;99.90;;;;;;5119927;27;20407;-63
2022/05/27 01:33:02;;;;;;;14.38;3.97;;;14.00;99.90;;;;;;5105125;27;20099;-62
2022/05/27 01:35:47;;;;;;;15.98;3.88;;;14.00;99.90;;;;;;5143668;27;20188;-63
2022/05/27 01:38:21;;;;;;;;;;;13.90;99.90;;;;;;5143623;27;20027;-63
2022/05/27 01:41:02;;;;;;;13.93;3.45;;;13.90;99.90;;;;;;5122366;27;19915;-64
2022/05/27 01:43:36;;;;;;;13.20;3.30;;;13.90;99.90;;;;;;5120314;27;20042;-63
2022/05/27 01:46:06;;;;;;;11.38;3.70;;;13.90;99.90;;;;;;5140889;27;20042;-63
2022/05/27 01:48:43;;;;;;;13.15;3.67;;;13.80;99.90;;;;;;5145364;27;20110;-63
2022/05/27 01:51:20;;;;;;;12.48;3.30;;;13.70;99.90;;;;;;5123625;27;20087;-63
2022/05/27 01:54:01;;;;;;;14.13;3.40;;;13.70;99.90;;;;;;5121314;27;20494;-64
2022/05/27 01:56:37;;;;;;;12.57;3.10;;;13.60;99.90;;;;;;5143695;27;20055;-63
2022/05/27 01:59:13;;;;;;;14.48;3.17;;;13.60;99.90;;;;;;5119144;27;20455;-63
2022/05/27 02:01:46;;;;;;;12.60;3.60;;;13.50;99.90;;;;;;5101690;27;20035;-64
2022/05/27 02:04:24;;;;;;;13.95;4.25;;;13.50;99.90;;;;;;5142317;27;20408;-63
2022/05/27 02:07:04;;;;;;;12.30;3.30;;;13.50;99.90;;;;;;5142196;27;20027;-63
2022/05/27 02:09:35;;;;;;;10.90;3.15;;;13.40;99.90;;;;;;5120903;27;20035;-63
2022/05/27 02:12:14;;;;;;;11.25;3.25;;;13.40;99.90;;;;;;5105149;27;20200;-63
2022/05/27 02:15:09;;;;;;;14.13;3.40;;;13.40;99.90;;;;;;5117711;27;20512;-63
2022/05/27 02:17:47;;;;;;;12.98;3.50;;;13.40;99.90;;;;;;5136836;27;20079;-63
2022/05/27 02:20:22;;;;;;;11.05;3.13;;;13.40;99.90;;;;;;5114911;27;20079;-63
2022/05/27 02:22:56;;;;;;;8.85;3.10;;;13.30;99.90;;;;;;5121006;27;20046;-63
2022/05/27 02:25:35;;;;;;;11.10;3.08;;;13.30;99.90;;;;;;5139626;27;20479;-64
2022/05/27 02:28:32;;;;;;;16.15;3.88;;;13.30;99.90;;;;;;5116955;27;20436;-63
2022/05/27 02:31:07;;;;;;;12.90;3.33;;;13.30;99.90;;;;;;5116706;27;20039;-62
2022/05/27 02:36:26;;;;;;;16.80;3.42;;;13.20;99.90;;;;;;5118839;27;20053;-63
2022/05/27 02:38:52;;;;;;;9.88;3.10;;;13.20;99.90;;;;;;5115251;27;20623;-63
2022/05/27 02:41:34;;;;;;;14.07;3.47;;;13.20;99.90;;;;;;5102914;27;20040;-63
2022/05/27 02:44:15;;;;;;;17.88;3.35;;;13.20;99.90;;;;;;5120836;27;20034;-64
2022/05/27 02:47:08;;;;;;;14.07;3.42;;;13.10;99.90;;;;;;5118450;27;20041;-63
2022/05/27 02:49:56;;;;;;;15.73;2.90;;;13.10;99.90;;;;;;5115341;28;20361;-63
2022/05/27 02:52:30;;;;;;;16.63;3.63;;;13.20;99.90;;;;;;5118671;27;20027;-63
2022/05/27 02:55:09;;;;;;;20.17;4.13;;;13.20;99.90;;;;;;5120741;27;20054;-63
2022/05/27 02:57:44;;;;;;;11.00;3.17;;;13.20;99.90;;;;;;5114683;27;20050;-63
2022/05/27 03:00:18;;;;;;;11.55;2.95;;;13.20;99.90;;;;;;5117739;27;20380;-63
2022/05/27 03:02:44;;;;;;;12.13;3.13;;;13.20;99.90;;;;;;5120375;27;20042;-63
2022/05/27 03:05:11;;;;;;;10.15;2.72;;;13.20;99.90;;;;;;5102851;27;20031;-64
2022/05/27 03:07:39;;;;;;;10.93;2.85;;;13.30;99.90;;;;;;5117827;27;20040;-64
2022/05/27 03:10:17;;;;;;;16.13;3.60;;;13.20;99.90;;;;;;5117207;27;20035;-63
2022/05/27 03:13:11;;;;;;;12.32;2.90;;;13.30;99.90;;;;;;5117436;27;20430;-64
2022/05/27 03:15:43;;;;;;;11.15;3.15;;;13.20;99.90;;;;;;5115724;27;20035;-64
2022/05/27 03:18:11;;;;;;;12.77;3.28;;;13.20;99.90;;;;;;5119774;27;20058;-63
2022/05/27 03:21:08;;;;;;;14.32;2.92;;;13.30;99.90;;;;;;5120618;27;20039;-63
2022/05/27 03:23:53;;;;;;;13.30;3.15;;;13.40;99.90;;;;;;5108280;27;20442;-64
2022/05/27 03:26:25;;;;;;;13.23;3.15;;;13.30;99.90;;;;;;5118026;27;20043;-63
2022/05/27 03:28:59;;;;;;;13.00;3.05;;;13.30;99.90;;;;;;5103156;27;20091;-63
2022/05/27 03:31:35;;;;;;;14.70;3.47;;;13.30;99.90;;;;;;5121715;27;20035;-63
2022/05/27 03:34:09;;;;;;;8.77;2.65;;;13.30;99.90;;;;;;5116635;27;20047;-63
2022/05/27 03:36:46;;;;;;;17.35;3.45;;;13.30;99.90;;;;;;5138670;27;20035;-64
2022/05/27 03:39:22;;;;;;;14.70;4.55;;;13.30;99.90;;;;;;5119958;27;20050;-63
2022/05/27 03:41:52;;;;;;;12.20;3.20;;;13.30;99.90;;;;;;5116958;28;20038;-64
2022/05/27 03:44:22;;;;;;;14.65;2.72;;;13.30;99.90;;;;;;5115476;28;20409;-63
2022/05/27 03:46:50;;;;;;;17.40;3.53;;;13.30;99.90;;;;;;5119782;27;20038;-64
2022/05/27 03:49:16;;;;;;;15.20;3.45;;;13.30;99.90;;;;;;5143075;27;20460;-64
2022/05/27 03:52:07;;;;;;;14.10;3.28;;;13.30;99.90;;;;;;5123814;27;20042;-64
2022/05/27 03:54:34;;;;;;;13.98;3.03;;;13.40;99.90;;;;;;5142329;27;20047;-63
2022/05/27 03:57:00;;;;;;;14.48;3.25;;;13.40;99.90;;;;;;5145801;27;20064;-63
2022/05/27 03:59:26;;;;;;;11.60;3.05;;;13.40;99.90;;;;;;5125602;27;20035;-63
2022/05/27 04:01:55;;;;;;;12.18;3.60;;;13.40;99.90;;;;;;5141862;27;20035;-63
2022/05/27 04:04:24;;;;;;;8.52;2.42;;;13.40;99.90;;;;;;5123306;27;20440;-63
2022/05/27 04:06:50;;;;;;;14.27;3.03;;;13.40;99.90;;;;;;5122549;27;20031;-63
2022/05/27 04:09:17;;;;;;;12.23;3.22;;;13.40;99.90;;;;;;5123280;27;20042;-64
2022/05/27 04:11:43;;;;;;;14.50;2.80;;;13.40;99.90;;;;;;5122138;27;20031;-63
2022/05/27 04:14:09;;;;;;;14.95;3.00;;;13.40;99.90;;;;;;5123328;27;20363;-63
2022/05/27 04:16:35;;;;;;;13.95;3.22;;;13.40;99.90;;;;;;5116947;27;20043;-64
2022/05/27 04:19:01;;;;;;;17.98;4.05;;;13.50;99.90;;;;;;5116636;27;20044;-63
2022/05/27 04:21:27;;;;;;;14.57;2.92;;;13.40;99.90;;;;;;5120088;27;20038;-63
2022/05/27 04:23:52;;;;;;;17.70;3.30;;;13.50;99.90;;;;;;5116293;27;20054;-63
2022/05/27 04:26:18;;;;;;;14.18;3.28;;;13.40;99.90;;;;;;5115068;27;20088;-64
2022/05/27 04:28:44;;;;;;;16.20;3.45;;;13.40;99.90;;;;;;5114248;27;20039;-63
2022/05/27 04:31:10;;;;;;;13.90;3.33;;;13.50;99.90;;;;;;5113469;27;20031;-64
2022/05/27 04:33:36;;;;;;;19.85;3.63;;;13.50;99.90;;;;;;5117746;27;20122;-63
2022/05/27 04:36:02;;;;;;;14.20;3.38;;;13.50;99.90;;;;;;5124511;27;20043;-63
2022/05/27 04:38:28;;;;;;;17.08;3.22;;;13.50;99.90;;;;;;5117376;27;20061;-64
2022/05/27 04:40:54;;;;;;;14.38;3.40;;;13.50;99.90;;;;;;5115571;27;20413;-63
2022/05/27 04:43:20;;;;;;;13.32;2.80;;;13.40;99.90;;;;;;5114615;27;20043;-65
2022/05/27 04:45:46;;;;;;;14.07;3.35;;;13.40;99.90;;;;;;5115250;27;20039;-63
2022/05/27 04:48:13;;;;;;;10.27;2.50;;;13.40;99.90;;;;;;5116002;27;20023;-63
2022/05/27 04:50:39;;;;;;;14.57;2.58;;;13.50;99.90;;;;;;5115627;27;20035;-63
2022/05/27 04:53:05;;;;;;;13.75;3.67;;;13.60;99.90;;;;;;5115630;27;20040;-63
2022/05/27 04:55:33;;;;;;;18.63;3.28;;;13.60;99.90;;;;;;5113739;27;20050;-64
2022/05/27 04:57:59;;;;;;;11.38;2.53;;;13.60;99.90;;;;;;5117379;27;20052;-63
2022/05/27 05:00:31;;;;;;;14.18;2.90;;;13.70;99.90;;;;;;5115066;27;20122;-63
2022/05/27 05:02:57;;;;;;;17.85;3.50;;;14.00;99.90;;;;;;5115397;27;20184;-63
2022/05/27 05:05:27;;;;;;;16.17;3.40;;;14.30;99.90;;;;;;5117001;27;20064;-63
2022/05/27 05:08:08;;;;;;;15.65;3.53;;;14.60;99.90;;;;;;5098069;27;20079;-64
2022/05/27 05:10:35;;;;;;;19.58;3.78;;;14.60;99.90;;;;;;5121121;27;20415;-63
2022/05/27 05:13:01;;;;;;;24.45;4.00;;;14.50;99.90;;;;;;5114345;27;20364;-65
2022/05/27 05:15:28;;;;;;;15.35;3.13;;;14.40;99.90;;;;;;5123349;27;20123;-64
2022/05/27 05:17:54;;;;;;;10.23;3.03;;;14.30;99.90;;;;;;5099551;27;20043;-64
2022/05/27 05:20:25;;;;;;;14.13;3.22;;;14.30;99.90;;;;;;5122046;27;20506;-63
2022/05/27 05:22:51;;;;;;;13.48;3.35;;;14.30;99.90;;;;;;5104404;27;20125;-63
2022/05/27 05:25:16;;;;;;;15.25;3.33;;;14.60;99.90;;;;;;5121325;27;20581;-64
2022/05/27 05:27:42;;;;;;;13.88;2.78;;;14.70;99.90;;;;;;5120052;27;20140;-63
2022/05/27 05:30:14;;;;;;;12.32;2.83;;;14.70;99.90;;;;;;5119867;27;20039;-63
2022/05/27 05:32:39;;;;;;;13.80;2.65;;;14.60;99.90;;;;;;5143464;27;20027;-63
2022/05/27 05:35:06;;;;;;;10.65;3.15;;;14.50;99.90;;;;;;5143477;27;20115;-65
2022/05/27 05:37:32;;;;;;;13.23;3.20;;;14.40;99.90;;;;;;5120413;27;20049;-63
2022/05/27 05:39:57;;;;;;;15.98;3.58;;;14.30;99.90;;;;;;5121128;27;20126;-64
2022/05/27 05:42:23;;;;;;;19.13;4.03;;;14.20;99.90;;;;;;5119999;27;20031;-63
2022/05/27 05:44:50;;;;;;;13.05;3.58;;;14.10;99.90;;;;;;5142508;27;20034;-63
2022/05/27 05:47:15;;;;;;;14.48;3.60;;;14.10;99.90;;;;;;5104338;27;20043;-64
2022/05/27 05:49:41;;;;;;;13.43;3.00;;;14.10;99.90;;;;;;5121272;27;20043;-64
2022/05/27 05:52:07;;;;;;;15.18;3.28;;;14.00;99.90;;;;;;5120840;27;20045;-64
2022/05/27 05:54:33;;;;;;;13.57;2.80;;;14.00;99.90;;;;;;5118409;27;20484;-63
2022/05/27 05:57:01;;;;;;;14.80;2.63;;;14.00;99.90;;;;;;5120776;27;20053;-63
2022/05/27 05:59:31;;;;;;;13.27;3.58;;;14.00;99.90;;;;;;5142156;27;20038;-63
2022/05/27 06:02:00;;;;;;;15.82;3.22;;;14.00;99.90;;;;;;5136487;27;20114;-63
2022/05/27 06:04:27;;;;;;;15.57;3.45;;;14.10;99.90;;;;;;5144576;27;20046;-63
2022/05/27 06:06:52;;;;;;;15.05;3.25;;;14.10;99.90;;;;;;5121610;27;20023;-63
2022/05/27 06:09:22;;;;;;;12.80;2.88;;;14.50;99.90;;;;;;5144229;27;20023;-63
2022/05/27 06:11:48;;;;;;;15.93;3.35;;;14.70;99.90;;;;;;5119573;27;20077;-63
2022/05/27 06:14:14;;;;;;;11.30;2.78;;;14.90;99.90;;;;;;5118078;27;20069;-63
2022/05/27 06:16:39;;;;;;;13.85;2.97;;;15.40;99.90;;;;;;5113060;27;20047;-63
2022/05/27 06:19:05;;;;;;;16.15;3.15;;;16.20;99.90;;;;;;5112542;27;20048;-64
2022/05/27 06:21:31;;;;;;;12.50;2.80;;;16.50;99.90;;;;;;5109018;27;20436;-63
2022/05/27 06:23:56;;;;;;;15.65;3.00;;;16.70;99.90;;;;;;5115416;27;20093;-64
2022/05/27 06:26:22;;;;;;;11.20;2.45;;;16.70;99.90;;;;;;5113442;27;20114;-63
2022/05/27 06:34:23;;;;;;;9.65;2.75;;;17.80;99.90;;;;;;5126149;27;20049;-66
2022/05/27 06:36:53;;;;;;;14.95;3.78;;;17.70;99.90;;;;;;5130214;27;20475;-65
2022/05/27 06:39:20;;;;;;;11.63;2.95;;;17.60;99.90;;;;;;5109621;27;20528;-63
2022/05/27 06:41:46;;;;;;;10.40;2.33;;;17.50;99.90;;;;;;5122810;27;20064;-63
2022/05/27 06:44:11;;;;;;;14.48;3.78;;;17.70;99.90;;;;;;5109647;27;21937;-64
2022/05/27 06:46:37;;;;;;;15.30;3.15;;;17.50;99.90;;;;;;5110071;27;20353;-65
2022/05/27 06:49:05;;;;;;;11.43;3.00;;;17.40;99.90;;;;;;5103796;28;20047;-63
2022/05/27 06:51:31;;;;;;;10.20;2.80;;;17.80;99.90;;;;;;5104197;27;20046;-63
2022/05/27 06:53:57;;;;;;;11.70;3.10;;;17.80;99.90;;;;;;5104095;27;20040;-63
2022/05/27 06:56:22;;;;;;;11.07;3.10;;;17.60;99.90;;;;;;5100043;28;20089;-63
2022/05/27 06:58:48;;;;;;;12.88;3.60;;;17.50;99.90;;;;;;5094879;28;20031;-63
2022/05/27 07:01:14;;;;;;;17.33;3.50;;;17.30;99.90;;;;;;5090952;28;20044;-63
2022/05/27 07:03:40;;;;;;;9.57;2.70;;;17.20;99.90;;;;;;5106993;28;20042;-63
2022/05/27 07:06:07;;;;;;;14.23;3.25;;;17.20;99.90;;;;;;5110974;28;20036;-64
2022/05/27 07:08:33;;;;;;;15.45;3.58;;;17.10;99.90;;;;;;5120846;28;20035;-64
2022/05/27 07:10:59;;;;;;;12.40;3.03;;;17.00;99.90;;;;;;5120010;27;20042;-64
2022/05/27 07:13:28;;;;;;;13.55;3.05;;;17.10;99.90;;;;;;5120986;28;20044;-64
2022/05/27 07:15:53;;;;;;;13.00;3.22;;;17.20;99.90;;;;;;5110853;28;20124;-65
2022/05/27 07:18:19;;;;;;;12.65;2.85;;;17.10;99.90;;;;;;5112287;28;20035;-63
2022/05/27 07:20:45;;;;;;;13.68;2.88;;;17.10;99.90;;;;;;5119843;28;20040;-63
2022/05/27 07:23:11;;;;;;;9.98;2.40;;;16.90;99.90;;;;;;5112614;27;20047;-65
2022/05/27 07:25:37;;;;;;;10.98;3.22;;;16.70;99.90;;;;;;5116444;27;20035;-63
2022/05/27 07:28:07;;;;;;;12.63;2.88;;;16.40;99.90;;;;;;5113280;27;20050;-64
2022/05/27 07:30:34;;;;;;;12.95;3.28;;;16.10;99.90;;;;;;5124677;27;20041;-64
2022/05/27 07:33:00;;;;;;;14.77;3.40;;;15.90;99.90;;;;;;5126069;27;20031;-64
2022/05/27 07:35:25;;;;;;;11.30;3.03;;;15.80;99.90;;;;;;5126485;27;20416;-64
2022/05/27 07:37:51;;;;;;;13.57;3.03;;;16.00;99.90;;;;;;5124260;27;20545;-63
2022/05/27 07:40:17;;;;;;;14.25;3.10;;;16.10;99.90;;;;;;5118424;27;20426;-63
2022/05/27 07:42:43;;;;;;;13.80;2.90;;;16.00;99.90;;;;;;5126136;27;20063;-63
2022/05/27 07:45:11;;;;;;;11.35;2.90;;;15.90;99.90;;;;;;5117737;27;20471;-63
2022/05/27 07:47:36;;;;;;;10.15;2.83;;;15.90;99.90;;;;;;5123314;27;20043;-63
2022/05/27 07:50:04;;;;;;;11.43;2.83;;;16.10;99.90;;;;;;5115599;27;20104;-63
2022/05/27 07:52:32;;;;;;;8.85;2.70;;;16.40;99.90;;;;;;5115168;27;20054;-66
2022/05/27 07:54:58;;;;;;;13.20;2.92;;;16.40;99.90;;;;;;5118413;27;20114;-64
2022/05/27 07:57:27;;;;;;;12.63;2.75;;;16.00;99.90;;;;;;5105912;27;20123;-63
2022/05/27 07:59:52;;;;;;;11.18;2.90;;;15.90;99.90;;;;;;5109993;27;20031;-64
2022/05/27 08:02:18;;;;;;;12.75;2.95;;;16.10;99.90;;;;;;5117101;27;20117;-64
2022/05/27 08:04:44;;;;;;;12.98;2.83;;;16.10;99.90;;;;;;5121272;27;20028;-64
2022/05/27 08:07:09;;;;;;;10.73;2.80;;;16.20;99.90;;;;;;5121091;27;20110;-64
2022/05/27 08:09:36;;;;;;;11.38;2.50;;;16.40;99.90;;;;;;5098530;27;20051;-64
2022/05/27 08:12:02;;;;;;;10.18;2.53;;;16.30;99.90;;;;;;5112349;27;20078;-65
2022/05/27 08:14:27;;;;;;;9.70;2.63;;;16.40;99.90;;;;;;5123065;27;20455;-65
2022/05/27 08:16:53;;;;;;;13.65;2.97;;;16.30;99.90;;;;;;5122228;27;20087;-62
2022/05/27 08:19:18;;;;;;;13.90;2.65;;;16.40;99.90;;;;;;5130181;27;20051;-63
2022/05/27 08:21:44;;;;;;;13.25;2.58;;;16.40;99.90;;;;;;5137052;27;20038;-63
2022/05/27 08:24:10;;;;;;;10.77;2.58;;;16.40;99.90;;;;;;5143314;27;20031;-66
2022/05/27 08:26:37;;;;;;;9.75;2.63;;;16.50;99.90;;;;;;5143786;27;20491;-64
2022/05/27 08:29:03;;;;;;;13.10;2.58;;;16.30;99.90;;;;;;5144233;27;20371;-64
2022/05/27 08:31:29;;;;;;;11.35;2.92;;;16.20;99.90;;;;;;5125458;27;20485;-64
2022/05/27 08:39:23;;;;;;;10.85;2.47;;;16.30;99.90;;;;;;5142851;27;20099;-65
2022/05/27 08:42:31;;;;;;;9.45;2.20;;;16.40;99.90;;;;;;5138733;27;20043;-64
2022/05/27 08:45:22;;;;;;;11.65;2.90;;;16.50;99.90;;;;;;5144075;27;20050;-64
2022/05/27 08:47:55;;;;;;;13.20;2.63;;;16.40;99.90;;;;;;5141076;27;20041;-64
2022/05/27 08:50:54;;;;;;;13.98;2.88;;;16.50;99.90;;;;;;5121511;27;20035;-64
2022/05/27 08:53:53;;;;;;;9.13;2.70;;;16.70;99.90;;;;;;5123356;27;20371;-65
2022/05/27 08:59:37;;;;;;;10.88;3.03;;;16.80;99.90;;;;;;5117835;27;20081;-64
2022/05/27 09:02:18;;;;;;;10.60;2.30;;;16.80;99.90;;;;;;5132715;27;20085;-64
2022/05/27 09:05:00;;;;;;;9.02;1.95;;;16.70;99.90;;;;;;5135594;27;20043;-64
2022/05/27 09:07:41;;;;;;;8.05;2.15;;;16.70;99.90;;;;;;5129817;27;20031;-64
2022/05/27 09:10:13;;;;;;;9.55;2.05;;;16.70;99.90;;;;;;5131595;27;20197;-65
2022/05/27 09:13:01;;;;;;;12.27;2.78;;;16.70;99.90;;;;;;5115618;28;20027;-64
2022/05/27 09:15:51;;;;;;;9.52;2.80;;;16.50;99.90;;;;;;5097425;27;1111879;-64
2022/05/27 09:18:41;;;;;;;9.18;2.33;;;16.70;99.90;;;;;;5138394;27;20502;-63
2022/05/27 09:21:28;;;;;;;7.22;1.63;;;16.80;99.90;;;;;;5139961;27;20191;-63
2022/05/27 09:23:58;;;;;;;8.77;1.83;;;16.90;99.90;;;;;;5119808;27;20039;-64
2022/05/27 09:26:49;;;;;;;10.35;2.22;;;17.00;99.60;;;;;;5143750;27;20118;-63
2022/05/27 09:29:24;;;;;;;13.25;2.15;;;17.00;99.80;;;;;;5101297;27;20485;-64
2022/05/27 09:31:57;;;;;;;5.95;1.75;;;16.80;99.60;;;;;;5141942;27;20458;-65
2022/05/27 09:34:29;;;;;;;9.23;2.00;;;16.70;99.90;;;;;;5143861;27;20463;-65
2022/05/27 09:36:59;;;;;;;9.32;2.13;;;16.80;99.90;;;;;;5139758;27;20034;-63
2022/05/27 09:39:24;;;;;;;8.90;1.65;;;16.60;98.40;;;;;;5144599;27;20035;-65
2022/05/27 09:42:15;;;;;;;9.63;2.03;;;16.50;99.30;;;;;;5142120;27;20123;-64
2022/05/27 09:44:54;;;;;;;7.22;1.90;;;16.50;99.80;;;;;;5139213;27;20350;-65
2022/05/27 09:47:28;;;;;;;8.30;2.20;;;16.50;99.70;;;;;;5141724;27;20062;-64
2022/05/27 09:50:19;;;;;;;10.20;2.17;;;16.50;99.70;;;;;;5140016;27;20336;-64
2022/05/27 09:52:46;;;;;;;12.52;2.20;;;16.50;99.60;;;;;;5139596;27;20031;-65
2022/05/27 09:55:22;;;;;;;11.13;2.63;;;16.30;99.80;;;;;;5142532;27;20192;-65
2022/05/27 09:58:03;;;;;;;8.93;2.28;;;16.20;99.90;;;;;;5142553;27;20073;-65
2022/05/27 10:00:36;;;;;;;7.60;1.83;;;16.30;99.60;;;;;;5140131;27;20039;-64
2022/05/27 10:03:19;;;;;;;9.52;2.45;;;16.30;99.60;;;;;;5143595;27;20373;-65
2022/05/27 10:05:51;;;;;;;15.10;2.72;;;16.20;99.90;;;;;;5140745;27;20075;-65
2022/05/27 10:08:30;;;;;;;17.98;3.03;;;16.30;99.80;;;;;;5139413;27;20455;-64
2022/05/27 10:11:18;;;;;;;10.10;2.63;;;16.30;99.90;;;;;;5138709;27;20053;-64
2022/05/27 10:13:44;;;;;;;10.05;2.53;;;16.40;99.90;;;;;;5140349;27;20291;-65
2022/05/27 10:16:20;;;;;;;8.80;2.28;;;16.50;99.50;;;;;;5143749;27;20089;-64
2022/05/27 10:18:47;;;;;;;11.77;2.60;;;16.70;99.60;;;;;;5144383;27;20039;-65
2022/05/27 10:21:18;;;;;;;8.13;2.10;;;16.80;99.80;;;;;;5141078;27;20110;-64
2022/05/27 10:23:48;;;;;;;9.15;2.38;;;16.80;99.60;;;;;;5142793;27;20030;-64
2022/05/27 10:26:24;;;;;;;8.10;2.05;;;16.70;99.30;;;;;;5138669;27;20126;-64
2022/05/27 10:29:07;;;;;;;7.55;2.17;;;16.80;99.30;;;;;;5144027;27;20075;-64
2022/05/27 10:31:34;;;;;;;8.43;2.33;;;16.80;99.90;;;;;;5143282;27;20035;-64
2022/05/27 10:34:00;;;;;;;11.57;2.70;;;17.00;99.90;;;;;;5142863;27;20047;-65
2022/05/27 10:36:47;;;;;;;9.10;2.40;;;16.90;99.90;;;;;;5141796;27;20035;-64
2022/05/27 10:39:30;;;;;;;10.07;2.55;;;16.80;99.90;;;;;;5120351;27;20371;-63
2022/05/27 10:42:23;;;;;;;7.95;2.33;;;16.60;99.90;;;;;;5139667;27;20070;-63
2022/05/27 10:44:55;;;;;;;10.48;2.45;;;16.30;99.90;;;;;;5143249;27;20130;-65
2022/05/27 10:47:36;;;;;;;7.18;1.92;;;16.20;99.90;;;;;;5142886;27;20038;-64
2022/05/27 10:50:32;;;;;;;8.77;2.67;;;16.00;99.90;;;;;;5141562;27;20421;-66
2022/05/27 10:53:33;;;;;;;11.60;2.65;;;16.10;99.90;;;;;;5139210;27;20139;-64
2022/05/27 10:56:13;;;;;;;8.60;2.50;;;16.40;99.90;;;;;;5140481;27;20039;-64
2022/05/27 11:02:19;;;;;;;10.45;2.50;;;16.60;99.90;;;;;;5069434;28;20409;-64
2022/05/27 11:04:53;;;;;;;10.27;2.70;;;16.60;99.90;;;;;;5132454;27;20049;-64
2022/05/27 11:07:51;;;;;;;8.20;2.40;;;16.70;99.90;;;;;;5111223;27;20092;-66
2022/05/27 11:10:59;;;;;;;14.23;2.92;;;16.70;99.90;;;;;;5147778;27;20405;-64
2022/05/27 11:17:04;;;;;;;11.50;2.70;;;16.80;99.90;;;;;;5138719;27;20134;-64
2022/05/27 11:19:37;;;;;;;14.50;2.95;;;17.00;99.90;;;;;;5137550;27;20451;-64
2022/05/27 11:22:12;;;;;;;9.43;2.80;;;17.20;99.90;;;;;;5128887;27;20126;-64
2022/05/27 11:25:08;;;;;;;12.48;3.20;;;17.10;99.90;;;;;;5122850;27;20049;-64
2022/05/27 11:27:41;;;;;;;13.00;2.80;;;17.10;99.90;;;;;;5140556;27;20034;-64
2022/05/27 11:30:46;;;;;;;11.23;3.00;;;16.80;99.90;;;;;;5134817;27;20027;-64
2022/05/27 11:33:18;;;;;;;12.68;2.92;;;17.10;99.90;;;;;;5143664;27;20027;-64
2022/05/27 11:36:10;;;;;;;10.63;3.08;;;17.20;99.90;;;;;;5143438;27;20666;-64
2022/05/27 11:39:01;;;;;;;14.68;3.05;;;17.10;99.90;;;;;;5141869;27;20043;-63
2022/05/27 11:41:42;;;;;;;13.00;2.97;;;16.90;99.90;;;;;;5140369;27;20050;-64
2022/05/27 11:44:18;;;;;;;12.48;3.72;;;16.70;99.90;;;;;;5137376;27;20044;-63
2022/05/27 11:47:05;;;;;;;17.17;3.20;;;16.70;99.90;;;;;;5117188;27;20452;-63
2022/05/27 11:49:53;;;;;;;12.40;3.47;;;16.80;99.90;;;;;;5138458;27;20035;-64
2022/05/27 11:52:21;;;;;;;10.52;2.85;;;16.80;99.90;;;;;;5135940;27;20386;-65
2022/05/27 11:54:53;;;;;;;14.15;3.22;;;16.70;99.90;;;;;;5141747;27;20039;-65
2022/05/27 11:57:32;;;;;;;9.63;3.30;;;16.80;99.90;;;;;;5116724;27;20436;-63
2022/05/27 12:00:05;;;;;;;12.43;3.05;;;17.00;99.90;;;;;;5139284;27;20336;-65
2022/05/27 12:02:46;;;;;;;13.85;2.83;;;17.20;99.90;;;;;;5095282;27;20420;-65
2022/05/27 12:05:19;;;;;;;12.73;2.97;;;17.40;99.90;;;;;;5127479;27;20054;-65
2022/05/27 12:07:50;;;;;;;11.53;2.90;;;17.10;99.90;;;;;;5114661;27;20026;-64
2022/05/27 12:10:16;;;;;;;10.65;2.88;;;17.10;99.90;;;;;;5143109;27;20080;-64
2022/05/27 12:13:16;;;;;;;14.48;3.17;;;17.40;99.90;;;;;;5141327;27;20466;-65
2022/05/27 12:15:53;;;;;;;16.40;3.25;;;17.30;99.90;;;;;;5135543;27;20071;-65
2022/05/27 12:18:27;;;;;;;17.65;3.67;;;17.50;99.90;;;;;;5141799;27;20061;-65
2022/05/27 12:20:55;;;;;;;13.25;3.13;;;17.50;99.80;;;;;;5139161;27;20042;-66
2022/05/27 12:23:25;;;;;;;8.68;2.70;;;17.60;99.90;;;;;;5140652;27;20050;-65
2022/05/27 12:25:55;;;;;;;9.77;2.88;;;17.70;99.20;;;;;;5141588;27;20041;-64
2022/05/27 12:28:34;;;;;;;13.63;2.70;;;17.70;99.30;;;;;;5111909;27;20031;-65
2022/05/27 12:31:02;;;;;;;17.13;3.15;;;17.40;99.00;;;;;;5138743;27;20066;-65
2022/05/27 12:33:30;;;;;;;14.10;2.75;;;17.20;99.90;;;;;;5142329;27;20030;-66
2022/05/27 12:36:21;;;;;;;10.65;2.58;;;17.10;99.90;;;;;;5125391;27;20047;-65
2022/05/27 12:38:49;;;;;;;12.90;2.75;;;17.00;99.90;;;;;;5139763;27;20035;-66
2022/05/27 12:41:39;;;;;;;11.10;2.95;;;16.90;99.90;;;;;;5106124;27;20511;-65
2022/05/27 12:44:20;;;;;;;10.95;3.15;;;17.00;99.90;;;;;;5114552;27;20039;-66
2022/05/27 12:46:50;;;;;;;11.85;2.80;;;16.90;99.90;;;;;;5138823;27;20463;-65
2022/05/27 12:49:32;;;;;;;12.75;2.22;;;16.80;99.90;;;;;;5118152;27;20070;-65
2022/05/27 12:51:59;;;;;;;12.68;2.63;;;16.70;99.90;;;;;;5140590;27;20555;-66
2022/05/27 12:54:42;;;;;;;11.48;2.55;;;16.90;99.90;;;;;;5124342;27;20042;-66
2022/05/27 13:03:44;;;;;;;11.80;2.55;;;16.60;99.90;;;;;;5140803;27;20066;-65
2022/05/27 13:06:32;;;;;;;18.13;2.95;;;16.50;99.90;;;;;;5121520;27;20118;-65
2022/05/27 13:09:00;;;;;;;13.63;3.38;;;16.60;99.90;;;;;;5118678;27;20103;-65
2022/05/27 13:11:31;;;;;;;15.05;3.22;;;16.90;99.90;;;;;;5123171;27;20049;-67
2022/05/27 13:14:03;;;;;;;12.50;3.17;;;16.70;99.90;;;;;;5119767;27;20043;-65
2022/05/27 13:16:41;;;;;;;18.17;3.55;;;16.70;99.90;;;;;;5121212;27;20483;-65
2022/05/27 13:19:22;;;;;;;9.07;2.63;;;16.80;99.90;;;;;;5145523;27;20176;-66
2022/05/27 13:21:53;;;;;;;15.32;2.78;;;16.80;99.90;;;;;;5144659;27;20169;-66
2022/05/27 13:24:18;;;;;;;15.13;2.88;;;16.70;99.90;;;;;;5119595;27;20061;-65
2022/05/27 13:26:49;;;;;;;10.40;2.45;;;16.60;99.90;;;;;;5120772;27;20039;-65
2022/05/27 13:29:28;;;;;;;10.90;3.05;;;16.80;99.90;;;;;;5116052;27;20039;-65
2022/05/27 13:32:05;;;;;;;14.27;3.17;;;16.90;99.90;;;;;;5124014;27;20471;-66
2022/05/27 13:34:46;;;;;;;18.60;3.35;;;16.70;99.90;;;;;;5123703;27;20055;-65
2022/05/27 13:37:17;;;;;;;13.77;3.15;;;16.50;99.90;;;;;;5121109;27;20066;-65
2022/05/27 13:39:55;;;;;;;13.52;3.47;;;16.30;99.90;;;;;;5143576;27;20460;-65
2022/05/27 13:42:35;;;;;;;11.90;2.88;;;16.30;99.90;;;;;;5117359;27;20122;-67